Time;durP1;ratioP1;P1;durP2;ratioP2;P2;SDS_P1;SDS_P2;PMS_P1;PMS_P2;Temp;Humidity;BMP_temperature;BMP_pressure;BME280_temperature;BME280_humidity;BME280_pressure;Samples;Min_cycle;Max_cycle;Signal;HPM_P1;HPM_P2
2022/02/05 00:01:22;;;;;;;10.38;4.30;;;;;;;;;;5072785;28;20161;-67
2022/02/05 00:03:56;;;;;;;7.68;3.95;;;;;;;;;;5072787;28;20139;-66
2022/02/05 00:06:29;;;;;;;7.70;3.85;;;;;;;;;;5073149;28;20056;-66
2022/02/05 00:09:05;;;;;;;7.22;3.75;;;;;;;;;;5072832;28;20058;-66
2022/02/05 00:14:35;;;;;;;7.35;3.78;;;;;;;;;;5073457;28;20067;-66
2022/02/05 00:20:28;;;;;;;8.02;4.05;;;;;;;;;;5074254;28;20068;-67
2022/02/05 00:39:42;;;;;;;6.18;3.53;;;;;;;;;;5066136;28;20048;-64
2022/02/05 00:42:25;;;;;;;7.68;3.60;;;;;;;;;;5065031;28;20056;-64
2022/02/05 00:44:52;;;;;;;6.18;3.08;;;;;;;;;;5062562;28;20493;-63
2022/02/05 00:47:19;;;;;;;6.15;3.15;;;;;;;;;;5063637;28;20098;-64
2022/02/05 00:49:51;;;;;;;6.35;3.15;;;;;;;;;;5066724;28;20119;-66
2022/02/05 00:52:20;;;;;;;5.68;3.10;;;;;;;;;;5064111;28;20449;-64
2022/02/05 00:54:50;;;;;;;6.38;3.13;;;;;;;;;;5061124;28;20122;-63
2022/02/05 00:57:33;;;;;;;7.00;3.33;;;;;;;;;;5068101;28;20048;-64
2022/02/05 01:00:00;;;;;;;6.53;3.17;;;;;;;;;;5063003;28;20052;-63
2022/02/05 01:02:27;;;;;;;2.72;1.27;;;;;;;;;;5073138;28;20049;-64
2022/02/05 01:04:56;;;;;;;2.47;1.10;;;;;;;;;;5072501;28;20051;-63
2022/02/05 01:07:23;;;;;;;2.50;1.08;;;;;;;;;;5073154;28;20098;-65
2022/02/05 01:09:50;;;;;;;2.05;0.80;;;;;;;;;;5059593;28;20041;-63
2022/02/05 01:12:18;;;;;;;2.63;0.90;;;;;;;;;;5053451;28;20436;-61
2022/02/05 01:14:50;;;;;;;2.58;0.90;;;;;;;;;;5052390;28;20136;-63
2022/02/05 01:17:23;;;;;;;1.75;0.80;;;;;;;;;;5053205;28;20060;-63
2022/02/05 01:20:19;;;;;;;2.40;0.88;;;;;;;;;;5053397;28;20458;-62
2022/02/05 01:22:49;;;;;;;2.97;1.05;;;;;;;;;;5053030;28;20387;-66
2022/02/05 01:25:21;;;;;;;1.98;1.00;;;;;;;;;;5053628;28;20064;-64
2022/02/05 01:27:52;;;;;;;1.65;0.82;;;;;;;;;;5053194;28;20480;-65
2022/02/05 01:30:24;;;;;;;2.33;0.95;;;;;;;;;;5053416;28;20083;-63
2022/02/05 01:33:02;;;;;;;2.17;1.05;;;;;;;;;;5053077;28;20049;-64
2022/02/05 01:35:37;;;;;;;2.38;1.20;;;;;;;;;;5052704;28;20057;-61
2022/02/05 01:52:14;;;;;;;1.80;1.17;;;;;;;;;;5052608;28;20516;-64
2022/02/05 01:55:05;;;;;;;2.95;1.42;;;;;;;;;;5052341;28;20102;-64
2022/02/05 01:57:47;;;;;;;2.78;1.35;;;;;;;;;;5052007;28;20049;-64
2022/02/05 02:05:53;;;;;;;1.90;0.98;;;;;;;;;;5052292;28;20067;-62
2022/02/05 02:11:27;;;;;;;1.90;0.90;;;;;;;;;;5052119;28;20422;-63
2022/02/05 02:14:26;;;;;;;1.98;0.85;;;;;;;;;;5052455;28;20057;-63
2022/02/05 02:19:49;;;;;;;2.97;0.85;;;;;;;;;;5052341;28;20432;-64
2022/02/05 02:22:24;;;;;;;1.75;0.70;;;;;;;;;;5052280;28;20052;-64
2022/02/05 02:25:01;;;;;;;2.05;0.77;;;;;;;;;;5052374;28;20456;-65
2022/02/05 02:27:36;;;;;;;1.73;0.88;;;;;;;;;;5052147;28;20053;-66
2022/02/05 02:30:10;;;;;;;3.33;0.90;;;;;;;;;;5052231;28;20052;-63
2022/02/05 02:32:41;;;;;;;1.52;0.63;;;;;;;;;;5051958;28;20076;-64
2022/02/05 02:35:13;;;;;;;1.90;0.82;;;;;;;;;;5052166;28;20053;-64
2022/02/05 02:37:49;;;;;;;1.17;0.70;;;;;;;;;;5051786;28;20056;-64
2022/02/05 02:40:25;;;;;;;2.65;0.80;;;;;;;;;;5051977;28;20049;-64
2022/02/05 02:42:59;;;;;;;2.97;0.90;;;;;;;;;;5051874;28;20098;-64
2022/02/05 02:45:26;;;;;;;1.65;0.90;;;;;;;;;;5052158;28;20052;-65
2022/02/05 02:47:53;;;;;;;2.25;0.90;;;;;;;;;;5051872;28;20084;-66
2022/02/05 02:50:33;;;;;;;2.17;0.90;;;;;;;;;;5051975;28;20132;-65
2022/02/05 02:58:33;;;;;;;1.30;0.77;;;;;;;;;;5051818;28;20571;-64
2022/02/05 03:01:01;;;;;;;3.10;1.08;;;;;;;;;;5051554;28;20505;-65
2022/02/05 03:03:29;;;;;;;1.60;0.80;;;;;;;;;;5051773;28;20049;-65
2022/02/05 03:05:56;;;;;;;2.20;0.82;;;;;;;;;;5051630;28;20124;-66
2022/02/05 03:08:24;;;;;;;2.42;1.02;;;;;;;;;;5051523;28;20136;-65
2022/02/05 03:10:51;;;;;;;1.60;0.90;;;;;;;;;;5051475;28;20045;-66
2022/02/05 03:13:18;;;;;;;1.58;0.90;;;;;;;;;;5051599;28;20492;-65
2022/02/05 03:15:45;;;;;;;2.47;1.00;;;;;;;;;;5051648;28;20059;-65
2022/02/05 03:18:16;;;;;;;1.95;1.10;;;;;;;;;;5051415;28;20049;-63
2022/02/05 03:20:43;;;;;;;1.50;0.82;;;;;;;;;;5051459;28;20045;-64
2022/02/05 03:23:10;;;;;;;3.05;1.10;;;;;;;;;;5051409;28;20047;-65
2022/02/05 03:25:38;;;;;;;3.78;1.45;;;;;;;;;;5051732;28;20049;-65
2022/02/05 03:28:06;;;;;;;1.95;1.10;;;;;;;;;;5053888;28;20446;-65
2022/02/05 03:30:33;;;;;;;2.15;1.20;;;;;;;;;;5055553;28;20049;-65
2022/02/05 03:33:00;;;;;;;2.58;1.25;;;;;;;;;;5055264;28;20549;-64
2022/02/05 03:35:27;;;;;;;2.58;1.00;;;;;;;;;;5055347;28;20461;-64
2022/02/05 03:37:54;;;;;;;2.08;0.93;;;;;;;;;;5054960;28;20047;-65
2022/02/05 03:40:22;;;;;;;2.33;0.90;;;;;;;;;;5055206;28;20053;-65
2022/02/05 03:42:50;;;;;;;1.95;0.98;;;;;;;;;;5054951;28;20055;-65
2022/02/05 03:45:17;;;;;;;2.60;1.20;;;;;;;;;;5054960;28;20080;-65
2022/02/05 03:47:44;;;;;;;2.67;1.30;;;;;;;;;;5054945;28;20478;-64
2022/02/05 03:50:11;;;;;;;1.60;0.93;;;;;;;;;;5054886;28;20051;-65
2022/02/05 03:52:39;;;;;;;2.40;0.95;;;;;;;;;;5054782;28;20053;-64
2022/02/05 03:55:08;;;;;;;2.55;1.30;;;;;;;;;;5054786;28;20053;-65
2022/02/05 03:57:35;;;;;;;2.75;1.27;;;;;;;;;;5054761;28;20075;-64
2022/02/05 04:00:07;;;;;;;3.03;1.42;;;;;;;;;;5054680;28;20095;-65
2022/02/05 04:02:34;;;;;;;3.75;1.52;;;;;;;;;;5054922;28;20073;-62
2022/02/05 04:05:01;;;;;;;2.42;1.30;;;;;;;;;;5055033;28;20103;-65
2022/02/05 04:07:31;;;;;;;2.20;1.08;;;;;;;;;;5055219;28;20509;-65
2022/02/05 04:10:01;;;;;;;3.65;1.00;;;;;;;;;;5054695;28;20060;-64
2022/02/05 04:17:58;;;;;;;3.13;1.00;;;;;;;;;;5054461;28;20060;-64
2022/02/05 04:20:25;;;;;;;2.70;0.80;;;;;;;;;;5054411;28;20100;-65
2022/02/05 04:22:52;;;;;;;2.60;0.95;;;;;;;;;;5054037;28;20498;-65
2022/02/05 04:25:19;;;;;;;1.83;0.95;;;;;;;;;;5054488;28;20458;-64
2022/02/05 04:27:46;;;;;;;2.33;1.00;;;;;;;;;;5054435;28;20051;-63
2022/02/05 04:30:15;;;;;;;2.88;0.90;;;;;;;;;;5054682;28;20048;-63
2022/02/05 04:32:42;;;;;;;2.72;1.17;;;;;;;;;;5054505;28;20045;-65
2022/02/05 04:35:09;;;;;;;1.75;0.90;;;;;;;;;;5054271;28;20458;-64
2022/02/05 04:37:37;;;;;;;2.75;1.00;;;;;;;;;;5053943;28;20048;-66
2022/02/05 04:40:18;;;;;;;3.03;0.77;;;;;;;;;;5054088;28;20041;-64
2022/02/05 04:42:54;;;;;;;1.80;0.80;;;;;;;;;;5053931;28;20484;-64
2022/02/05 04:45:39;;;;;;;2.58;1.10;;;;;;;;;;5053855;28;20148;-66
2022/02/05 04:48:38;;;;;;;1.83;1.10;;;;;;;;;;5053571;28;20063;-64
2022/02/05 04:54:07;;;;;;;3.85;1.20;;;;;;;;;;5053758;28;20060;-66
2022/02/05 04:56:44;;;;;;;2.33;1.13;;;;;;;;;;5053800;28;20056;-64
2022/02/05 05:02:36;;;;;;;3.13;1.13;;;;;;;;;;5048215;28;20099;-64
2022/02/05 05:05:17;;;;;;;5.40;1.20;;;;;;;;;;5053753;28;20079;-66
2022/02/05 05:07:58;;;;;;;2.83;0.93;;;;;;;;;;5053255;28;20132;-65
2022/02/05 05:10:32;;;;;;;;;;;;;;;;;;5054086;28;20438;-65
2022/02/05 05:13:04;;;;;;;4.22;1.30;;;;;;;;;;5053545;28;20367;-65
2022/02/05 05:19:11;;;;;;;2.28;1.23;;;;;;;;;;5053427;28;20049;-66
2022/02/05 05:21:10;;;;;;;2.97;1.30;;;;;;;;;;5053081;28;20059;-65
2022/02/05 05:23:37;;;;;;;3.05;1.10;;;;;;;;;;5053228;28;20055;-63
2022/02/05 05:26:04;;;;;;;3.55;1.20;;;;;;;;;;5053236;28;20067;-65
2022/02/05 05:28:31;;;;;;;3.88;1.40;;;;;;;;;;5053114;28;20049;-65
2022/02/05 05:30:58;;;;;;;3.90;1.17;;;;;;;;;;5053092;28;20083;-65
2022/02/05 05:33:26;;;;;;;2.22;1.10;;;;;;;;;;5053082;28;20490;-66
2022/02/05 05:35:53;;;;;;;2.97;1.50;;;;;;;;;;5052769;28;20052;-65
2022/02/05 05:38:20;;;;;;;2.53;1.70;;;;;;;;;;5052615;28;20084;-64
2022/02/05 05:40:47;;;;;;;3.50;1.40;;;;;;;;;;5053148;28;20463;-65
2022/02/05 05:43:26;;;;;;;4.25;1.95;;;;;;;;;;5053081;28;20425;-65
2022/02/05 05:46:15;;;;;;;3.67;1.58;;;;;;;;;;5052870;28;20053;-65
2022/02/05 05:48:56;;;;;;;4.00;1.55;;;;;;;;;;5053023;28;20533;-65
2022/02/05 05:51:23;;;;;;;3.50;1.77;;;;;;;;;;5052433;28;20474;-64
2022/02/05 05:53:50;;;;;;;3.20;1.75;;;;;;;;;;5052858;28;20405;-65
2022/02/05 05:56:20;;;;;;;5.95;2.33;;;;;;;;;;5052672;28;20059;-65
2022/02/05 05:58:47;;;;;;;4.13;1.80;;;;;;;;;;5052658;28;20044;-65
2022/02/05 06:01:15;;;;;;;4.30;1.90;;;;;;;;;;5052518;28;20081;-64
2022/02/05 06:03:44;;;;;;;4.45;1.98;;;;;;;;;;5052375;28;20049;-65
2022/02/05 06:06:11;;;;;;;4.10;2.20;;;;;;;;;;5052281;28;20048;-64
2022/02/05 06:08:38;;;;;;;4.57;2.22;;;;;;;;;;5052257;28;20055;-64
2022/02/05 06:11:05;;;;;;;4.97;2.50;;;;;;;;;;5052351;28;20170;-64
2022/02/05 06:13:34;;;;;;;4.63;2.20;;;;;;;;;;5052664;28;20072;-65
2022/02/05 06:16:04;;;;;;;4.30;2.20;;;;;;;;;;5052257;28;20057;-63
2022/02/05 06:18:31;;;;;;;4.10;2.30;;;;;;;;;;5052085;28;20051;-66
2022/02/05 06:20:59;;;;;;;4.25;2.00;;;;;;;;;;5052125;28;20045;-64
2022/02/05 06:23:26;;;;;;;3.67;1.90;;;;;;;;;;5063930;22;20048;-67
2022/02/05 06:25:53;;;;;;;3.80;2.08;;;;;;;;;;5052707;28;20425;-67
2022/02/05 06:28:20;;;;;;;5.28;1.95;;;;;;;;;;5052291;28;20053;-67
2022/02/05 06:30:47;;;;;;;4.53;2.10;;;;;;;;;;5052339;28;20053;-67
2022/02/05 06:33:16;;;;;;;4.75;2.33;;;;;;;;;;5052046;28;20161;-66
2022/02/05 06:35:43;;;;;;;3.70;1.70;;;;;;;;;;5051940;28;20048;-67
2022/02/05 06:38:12;;;;;;;4.30;2.20;;;;;;;;;;5051845;28;20144;-66
2022/02/05 06:40:39;;;;;;;4.93;2.10;;;;;;;;;;5052312;28;20490;-66
2022/02/05 06:43:06;;;;;;;5.55;2.10;;;;;;;;;;5051846;28;20084;-67
2022/02/05 06:45:33;;;;;;;4.07;2.00;;;;;;;;;;5052150;28;20049;-66
2022/02/05 06:48:00;;;;;;;3.55;1.92;;;;;;;;;;5051506;28;20045;-66
2022/02/05 06:50:27;;;;;;;3.70;2.00;;;;;;;;;;5051947;28;20053;-67
2022/02/05 06:52:54;;;;;;;4.38;2.30;;;;;;;;;;5052028;28;20411;-67
2022/02/05 06:55:23;;;;;;;3.38;1.83;;;;;;;;;;5051761;28;20080;-66
2022/02/05 06:57:50;;;;;;;4.80;2.20;;;;;;;;;;5051597;28;20045;-67
2022/02/05 07:00:17;;;;;;;4.53;2.28;;;;;;;;;;5052010;28;20458;-66
2022/02/05 07:02:44;;;;;;;5.13;2.35;;;;;;;;;;5054462;28;20467;-67
2022/02/05 07:05:12;;;;;;;3.83;2.00;;;;;;;;;;5056746;28;20073;-67
2022/02/05 07:07:40;;;;;;;5.65;2.50;;;;;;;;;;5055478;28;20045;-67
2022/02/05 07:10:08;;;;;;;5.45;2.33;;;;;;;;;;5055924;28;20061;-66
2022/02/05 07:12:52;;;;;;;4.10;2.13;;;;;;;;;;5055835;28;20091;-67
2022/02/05 07:15:23;;;;;;;5.15;2.33;;;;;;;;;;5056168;28;20057;-67
2022/02/05 07:18:01;;;;;;;;;;;;;;;;;;5055935;28;20149;-66
2022/02/05 07:20:37;;;;;;;4.05;2.00;;;;;;;;;;5055799;28;19925;-67
2022/02/05 07:23:27;;;;;;;5.35;2.33;;;;;;;;;;5055493;28;20053;-67
2022/02/05 07:31:24;;;;;;;4.57;2.08;;;;;;;;;;5056572;28;20126;-66
2022/02/05 07:33:52;;;;;;;3.97;1.90;;;;;;;;;;5055607;28;20083;-67
2022/02/05 07:36:19;;;;;;;4.78;2.15;;;;;;;;;;5055589;28;20049;-67
2022/02/05 07:38:47;;;;;;;3.95;2.10;;;;;;;;;;5055018;28;20049;-66
2022/02/05 07:41:14;;;;;;;4.10;2.08;;;;;;;;;;5055723;28;20045;-67
2022/02/05 07:43:43;;;;;;;3.45;1.75;;;;;;;;;;5055334;28;20052;-67
2022/02/05 07:46:12;;;;;;;3.45;1.85;;;;;;;;;;5055095;28;20056;-67
2022/02/05 07:48:40;;;;;;;4.53;2.00;;;;;;;;;;5055005;28;20053;-67
2022/02/05 07:51:08;;;;;;;7.18;2.30;;;;;;;;;;5055121;28;20049;-67
2022/02/05 07:53:36;;;;;;;5.70;2.15;;;;;;;;;;5055686;28;20049;-66
2022/02/05 07:56:04;;;;;;;4.20;2.13;;;;;;;;;;5055370;28;20500;-66
2022/02/05 07:58:32;;;;;;;5.03;2.28;;;;;;;;;;5054910;28;20486;-67
2022/02/05 08:01:00;;;;;;;4.30;1.90;;;;;;;;;;5055522;28;20053;-67
2022/02/05 08:03:27;;;;;;;5.05;2.22;;;;;;;;;;5055241;28;20045;-67
2022/02/05 08:05:55;;;;;;;5.55;2.00;;;;;;;;;;5055181;28;20057;-66
2022/02/05 08:08:27;;;;;;;2.53;1.55;;;;;;;;;;5054661;28;20555;-67
2022/02/05 08:10:57;;;;;;;4.32;2.20;;;;;;;;;;5055244;28;20479;-68
2022/02/05 08:13:28;;;;;;;4.60;2.03;;;;;;;;;;5055670;28;20563;-68
2022/02/05 08:15:58;;;;;;;5.32;2.10;;;;;;;;;;5056348;28;20081;-67
2022/02/05 08:18:27;;;;;;;4.95;2.53;;;;;;;;;;5055976;28;20048;-66
2022/02/05 08:20:54;;;;;;;3.88;1.92;;;;;;;;;;5055659;28;20052;-66
2022/02/05 08:23:21;;;;;;;4.03;1.95;;;;;;;;;;5055507;28;20064;-66
2022/02/05 08:25:47;;;;;;;5.03;2.38;;;;;;;;;;5056104;28;20053;-66
2022/02/05 08:28:14;;;;;;;4.75;2.38;;;;;;;;;;5054075;28;20401;-66
2022/02/05 08:30:41;;;;;;;4.63;2.20;;;;;;;;;;5055121;28;20075;-66
2022/02/05 08:33:08;;;;;;;5.15;2.30;;;;;;;;;;5055337;28;20502;-68
2022/02/05 08:35:36;;;;;;;5.43;2.13;;;;;;;;;;5053960;28;20044;-68
2022/02/05 08:38:04;;;;;;;4.00;2.10;;;;;;;;;;5053728;28;20335;-68
2022/02/05 08:40:31;;;;;;;3.70;2.00;;;;;;;;;;5054035;28;20096;-68
2022/02/05 08:42:58;;;;;;;4.53;1.85;;;;;;;;;;5053851;28;20049;-68
2022/02/05 08:45:25;;;;;;;3.35;1.70;;;;;;;;;;5054003;28;20120;-68
2022/02/05 08:47:53;;;;;;;5.18;1.95;;;;;;;;;;5053326;28;20049;-70
2022/02/05 08:50:20;;;;;;;4.78;1.90;;;;;;;;;;5053813;28;20049;-68
2022/02/05 08:52:53;;;;;;;5.25;1.90;;;;;;;;;;5053896;28;20441;-68
2022/02/05 08:55:21;;;;;;;3.97;1.92;;;;;;;;;;5053937;28;20049;-68
2022/02/05 08:57:48;;;;;;;4.20;1.88;;;;;;;;;;5053080;28;20055;-68
2022/02/05 09:00:22;;;;;;;5.28;1.98;;;;;;;;;;5053507;28;20136;-70
2022/02/05 09:02:55;;;;;;;3.22;1.88;;;;;;;;;;5054277;28;20155;-68
2022/02/05 09:05:34;;;;;;;5.25;1.98;;;;;;;;;;5053372;28;20052;-68
2022/02/05 09:08:09;;;;;;;4.00;1.65;;;;;;;;;;5053194;28;20509;-71
2022/02/05 09:10:49;;;;;;;4.80;1.90;;;;;;;;;;5053590;28;20498;-69
2022/02/05 09:13:37;;;;;;;4.38;1.70;;;;;;;;;;5053442;28;20052;-69
2022/02/05 09:16:05;;;;;;;3.38;1.70;;;;;;;;;;5053467;28;20068;-69
2022/02/05 09:18:32;;;;;;;4.68;2.10;;;;;;;;;;5053040;28;20056;-69
2022/02/05 09:20:59;;;;;;;4.38;1.75;;;;;;;;;;5053360;28;20493;-69
2022/02/05 09:23:28;;;;;;;3.92;1.80;;;;;;;;;;5052960;28;20097;-70
2022/02/05 09:25:56;;;;;;;4.45;1.80;;;;;;;;;;5052371;28;20060;-68
2022/02/05 09:28:24;;;;;;;9.25;4.50;;;;;;;;;;5052910;28;20561;-69
2022/02/05 09:31:13;;;;;;;3.78;1.85;;;;;;;;;;5053017;28;20078;-68
2022/02/05 09:33:40;;;;;;;5.50;2.03;;;;;;;;;;5052798;28;20041;-70
2022/02/05 09:36:09;;;;;;;4.75;1.95;;;;;;;;;;5050678;28;20569;-69
2022/02/05 09:38:37;;;;;;;4.80;2.00;;;;;;;;;;5052671;28;20051;-68
2022/02/05 09:41:04;;;;;;;4.97;1.98;;;;;;;;;;5052953;28;20057;-71
2022/02/05 09:43:32;;;;;;;6.65;2.47;;;;;;;;;;5053084;28;20052;-68
2022/02/05 09:45:59;;;;;;;6.70;2.05;;;;;;;;;;5053269;28;20049;-69
2022/02/05 09:48:29;;;;;;;4.80;2.30;;;;;;;;;;5052260;28;20088;-72
2022/02/05 09:51:03;;;;;;;6.07;1.70;;;;;;;;;;5053049;28;20075;-70
2022/02/05 09:53:31;;;;;;;4.75;2.17;;;;;;;;;;5052905;28;20045;-68
2022/02/05 09:55:59;;;;;;;3.30;1.63;;;;;;;;;;5052890;28;20055;-69
2022/02/05 09:58:26;;;;;;;4.97;1.98;;;;;;;;;;5052265;28;20053;-67
2022/02/05 10:01:02;;;;;;;6.10;1.92;;;;;;;;;;5052430;28;20106;-69
2022/02/05 10:03:32;;;;;;;5.03;1.88;;;;;;;;;;5052464;28;20132;-69
2022/02/05 10:06:12;;;;;;;3.97;1.30;;;;;;;;;;5052789;28;20494;-68
2022/02/05 10:08:41;;;;;;;6.68;1.35;;;;;;;;;;5052405;28;20041;-70
2022/02/05 10:11:10;;;;;;;5.38;1.65;;;;;;;;;;5052687;28;20060;-67
2022/02/05 10:13:38;;;;;;;6.80;1.30;;;;;;;;;;5052533;28;20055;-68
2022/02/05 10:16:07;;;;;;;4.05;1.60;;;;;;;;;;5052412;28;20509;-68
2022/02/05 10:18:36;;;;;;;3.35;1.42;;;;;;;;;;5051984;28;20063;-69
2022/02/05 10:21:19;;;;;;;4.20;1.52;;;;;;;;;;5052151;28;20152;-68
2022/02/05 10:23:55;;;;;;;3.15;1.48;;;;;;;;;;5052108;28;20414;-70
2022/02/05 10:26:36;;;;;;;4.10;1.50;;;;;;;;;;5052348;28;20049;-67
2022/02/05 10:29:06;;;;;;;4.00;1.60;;;;;;;;;;5052242;28;20053;-68
2022/02/05 10:31:55;;;;;;;2.60;1.33;;;;;;;;;;5052252;28;20450;-69
2022/02/05 10:34:23;;;;;;;3.45;1.48;;;;;;;;;;5052264;28;20061;-71
2022/02/05 10:37:09;;;;;;;5.53;1.95;;;;;;;;;;5051873;28;20072;-71
2022/02/05 10:39:52;;;;;;;4.90;1.40;;;;;;;;;;5052093;28;20078;-67
2022/02/05 10:45:08;;;;;;;5.07;1.50;;;;;;;;;;5051993;28;20055;-68
2022/02/05 10:47:53;;;;;;;4.85;1.55;;;;;;;;;;5051749;28;20045;-69
2022/02/05 10:50:22;;;;;;;5.15;1.58;;;;;;;;;;5052303;28;20443;-68
2022/02/05 10:52:51;;;;;;;4.50;1.50;;;;;;;;;;5052102;28;20053;-71
2022/02/05 10:55:24;;;;;;;4.07;1.35;;;;;;;;;;5052179;28;20091;-67
2022/02/05 10:58:14;;;;;;;3.72;1.15;;;;;;;;;;5051510;28;20144;-70
2022/02/05 11:06:10;;;;;;;3.08;1.27;;;;;;;;;;5051809;28;20102;-68
2022/02/05 11:08:38;;;;;;;4.15;1.63;;;;;;;;;;5051292;28;20132;-68
2022/02/05 11:19:30;;;;;;;2.05;1.23;;;;;;;;;;5089597;28;20052;-69
2022/02/05 11:21:59;;;;;;;3.40;1.60;;;;;;;;;;5089617;28;20070;-69
2022/02/05 11:24:27;;;;;;;2.60;1.45;;;;;;;;;;5089522;28;20060;-68
2022/02/05 11:26:54;;;;;;;2.97;1.30;;;;;;;;;;5089254;28;20410;-68
2022/02/05 11:29:29;;;;;;;3.35;1.20;;;;;;;;;;5089103;28;20127;-68
2022/02/05 11:32:23;;;;;;;3.15;1.58;;;;;;;;;;5089138;28;20054;-68
2022/02/05 11:35:07;;;;;;;2.65;1.33;;;;;;;;;;5089238;28;20105;-72
2022/02/05 11:37:53;;;;;;;3.35;1.33;;;;;;;;;;5089360;28;20139;-69
2022/02/05 11:40:45;;;;;;;4.88;1.30;;;;;;;;;;5089408;28;20063;-68
2022/02/05 11:43:20;;;;;;;3.42;1.20;;;;;;;;;;5089016;28;20059;-67
2022/02/05 11:46:06;;;;;;;5.00;1.45;;;;;;;;;;5089470;28;20088;-68
2022/02/05 11:48:45;;;;;;;3.42;1.55;;;;;;;;;;5088721;28;20053;-70
2022/02/05 11:51:17;;;;;;;4.13;1.40;;;;;;;;;;5089031;28;20070;-68
2022/02/05 11:54:07;;;;;;;3.97;1.33;;;;;;;;;;5088932;28;20152;-68
2022/02/05 11:56:52;;;;;;;3.70;1.40;;;;;;;;;;5088596;28;20139;-68
2022/02/05 11:59:22;;;;;;;7.18;2.17;;;;;;;;;;5088641;28;20087;-69
2022/02/05 12:01:49;;;;;;;2.80;1.40;;;;;;;;;;5088837;28;20147;-67
2022/02/05 12:04:21;;;;;;;3.35;1.55;;;;;;;;;;5088984;28;20497;-68
2022/02/05 12:06:52;;;;;;;6.70;1.90;;;;;;;;;;5088603;28;20059;-67
2022/02/05 12:09:41;;;;;;;4.25;1.50;;;;;;;;;;5089146;28;20052;-71
2022/02/05 12:12:39;;;;;;;3.45;1.30;;;;;;;;;;5085625;28;20095;-68
2022/02/05 12:15:24;;;;;;;4.80;2.17;;;;;;;;;;5080294;28;20052;-68
2022/02/05 12:18:14;;;;;;;3.10;1.30;;;;;;;;;;5088364;28;20102;-67
2022/02/05 12:21:08;;;;;;;5.00;1.73;;;;;;;;;;5088776;28;20060;-68
2022/02/05 12:24:32;;;;;;;3.40;1.42;;;;;;;;;;5102001;22;20111;-80
2022/02/05 12:27:00;;;;;;;4.32;1.75;;;;;;;;;;4997265;28;20254;-78
2022/02/05 12:29:33;;;;;;;7.35;2.45;;;;;;;;;;5046918;28;20054;-78
2022/02/05 12:32:01;;;;;;;4.38;1.48;;;;;;;;;;5045538;28;20069;-78
2022/02/05 12:34:35;;;;;;;2.65;1.52;;;;;;;;;;5032606;28;20054;-78
2022/02/05 12:37:04;;;;;;;3.17;1.27;;;;;;;;;;5026885;28;20037;-78
2022/02/05 12:39:34;;;;;;;2.00;1.05;;;;;;;;;;5025094;28;20045;-78
2022/02/05 12:42:03;;;;;;;2.67;1.25;;;;;;;;;;5026702;28;20096;-76
2022/02/05 12:44:31;;;;;;;4.00;1.35;;;;;;;;;;5027470;28;20068;-78
2022/02/05 12:47:03;;;;;;;3.03;1.42;;;;;;;;;;5026897;28;20046;-78
2022/02/05 12:49:36;;;;;;;5.40;1.33;;;;;;;;;;5025857;28;20056;-78
2022/02/05 12:52:06;;;;;;;3.33;1.38;;;;;;;;;;5024899;28;20056;-79
2022/02/05 12:54:35;;;;;;;3.50;1.40;;;;;;;;;;5022704;28;20057;-77
2022/02/05 12:57:02;;;;;;;5.03;1.60;;;;;;;;;;5021458;28;20046;-80
2022/02/05 12:59:35;;;;;;;4.60;1.50;;;;;;;;;;5019387;28;20057;-80
2022/02/05 13:02:04;;;;;;;3.72;1.20;;;;;;;;;;5023646;28;20050;-84
2022/02/05 13:04:33;;;;;;;3.58;1.58;;;;;;;;;;5025491;28;20448;-86
2022/02/05 13:07:02;;;;;;;2.65;1.48;;;;;;;;;;5029018;28;20058;-86
2022/02/05 13:09:32;;;;;;;4.80;1.58;;;;;;;;;;5029443;28;20038;-81
2022/02/05 13:12:02;;;;;;;5.07;1.38;;;;;;;;;;5029525;28;20077;-82
2022/02/05 13:14:43;;;;;;;4.47;1.20;;;;;;;;;;5028839;28;20061;-82
2022/02/05 13:17:24;;;;;;;2.95;1.15;;;;;;;;;;5027805;28;20306;-81
2022/02/05 13:25:46;;;;;;;2.55;1.30;;;;;;;;;;5023866;28;20049;-80
2022/02/05 13:28:29;;;;;;;3.45;1.33;;;;;;;;;;5021346;28;20539;-80
2022/02/05 13:36:38;;;;;;;3.38;1.40;;;;;;;;;;5023233;28;20141;-81
2022/02/05 13:39:17;;;;;;;5.22;1.52;;;;;;;;;;5020111;28;20046;-79
2022/02/05 13:41:52;;;;;;;2.58;1.30;;;;;;;;;;5021223;28;20137;-80
2022/02/05 13:44:22;;;;;;;2.67;0.98;;;;;;;;;;5021565;28;20463;-79
2022/02/05 13:47:04;;;;;;;3.40;1.30;;;;;;;;;;5021458;28;20120;-80
2022/02/05 13:49:31;;;;;;;2.47;1.15;;;;;;;;;;5022615;28;20497;-80
2022/02/05 13:52:09;;;;;;;4.40;1.58;;;;;;;;;;5021633;28;20053;-80
2022/02/05 13:54:38;;;;;;;4.25;1.48;;;;;;;;;;5021367;28;20116;-79
2022/02/05 13:57:10;;;;;;;3.17;1.30;;;;;;;;;;5018829;28;20056;-79
2022/02/05 13:59:37;;;;;;;3.83;1.30;;;;;;;;;;5021582;28;20073;-80
2022/02/05 14:02:14;;;;;;;3.65;1.40;;;;;;;;;;5023169;28;20054;-80
2022/02/05 14:04:41;;;;;;;2.63;1.27;;;;;;;;;;5023349;28;20045;-81
2022/02/05 14:07:08;;;;;;;2.17;1.05;;;;;;;;;;5018684;28;20064;-81
2022/02/05 14:09:37;;;;;;;3.38;1.40;;;;;;;;;;5018843;28;20057;-81
2022/02/05 14:12:21;;;;;;;2.20;1.20;;;;;;;;;;5020101;28;20042;-82
2022/02/05 14:15:02;;;;;;;2.60;1.20;;;;;;;;;;5020839;28;20042;-81
2022/02/05 14:17:29;;;;;;;3.17;1.30;;;;;;;;;;5022296;28;20057;-81
2022/02/05 14:20:07;;;;;;;4.28;1.20;;;;;;;;;;5021707;28;20489;-83
2022/02/05 14:22:37;;;;;;;4.20;1.60;;;;;;;;;;5022396;28;20120;-81
2022/02/05 14:25:13;;;;;;;3.63;1.33;;;;;;;;;;5021199;28;20077;-81
2022/02/05 14:28:11;;;;;;;3.45;1.40;;;;;;;;;;5021883;28;20054;-82
2022/02/05 14:30:42;;;;;;;4.13;1.42;;;;;;;;;;5022363;28;20045;-80
2022/02/05 14:33:09;;;;;;;;;;;;;;;;;;5023321;28;20049;-80
2022/02/05 14:36:15;;;;;;;3.90;1.33;;;;;;;;;;5030830;28;19929;-82
2022/02/05 14:41:26;;;;;;;5.70;1.85;;;;;;;;;;5034465;28;20081;-81
2022/02/05 14:43:54;;;;;;;3.10;1.27;;;;;;;;;;5029600;28;20050;-79
2022/02/05 14:46:21;;;;;;;5.35;1.48;;;;;;;;;;5026991;28;20056;-80
2022/02/05 14:48:48;;;;;;;5.60;1.33;;;;;;;;;;5026865;28;20074;-80
2022/02/05 14:51:18;;;;;;;2.28;0.95;;;;;;;;;;5024301;28;20057;-81
2022/02/05 14:53:45;;;;;;;2.58;1.45;;;;;;;;;;5023522;28;20054;-79
2022/02/05 14:56:12;;;;;;;2.67;1.13;;;;;;;;;;5023090;28;20444;-80
2022/02/05 14:58:39;;;;;;;3.13;1.23;;;;;;;;;;5023494;28;20126;-80
2022/02/05 15:01:08;;;;;;;3.08;1.30;;;;;;;;;;5025549;28;20073;-80
2022/02/05 15:03:44;;;;;;;2.92;1.27;;;;;;;;;;5025005;28;20060;-83
2022/02/05 15:06:17;;;;;;;5.00;1.40;;;;;;;;;;5018890;28;20073;-81
2022/02/05 15:08:45;;;;;;;4.43;1.30;;;;;;;;;;5018070;28;20132;-81
2022/02/05 15:11:12;;;;;;;3.15;1.20;;;;;;;;;;5019280;28;20074;-81
2022/02/05 15:13:39;;;;;;;3.08;1.05;;;;;;;;;;5019004;28;20069;-81
2022/02/05 15:16:10;;;;;;;3.17;1.20;;;;;;;;;;5021056;28;20174;-80
2022/02/05 15:18:36;;;;;;;4.13;1.30;;;;;;;;;;5025946;28;20460;-82
2022/02/05 15:21:08;;;;;;;4.35;1.27;;;;;;;;;;5021076;28;20045;-78
2022/02/05 15:23:36;;;;;;;3.78;1.33;;;;;;;;;;5036136;28;20061;-79
2022/02/05 15:26:04;;;;;;;5.75;1.42;;;;;;;;;;5031825;28;20057;-80
2022/02/05 15:28:32;;;;;;;4.85;1.42;;;;;;;;;;5019831;28;20042;-80
2022/02/05 15:31:01;;;;;;;6.72;2.13;;;;;;;;;;5019721;28;20056;-81
2022/02/05 15:33:29;;;;;;;13.57;5.60;;;;;;;;;;5018070;28;20073;-81
2022/02/05 15:36:01;;;;;;;3.85;1.50;;;;;;;;;;5017676;28;20061;-82
2022/02/05 15:38:36;;;;;;;4.55;1.67;;;;;;;;;;5017795;28;20057;-81
2022/02/05 15:43:52;;;;;;;3.17;1.70;;;;;;;;;;5017385;28;20115;-80
2022/02/05 15:46:20;;;;;;;5.18;1.90;;;;;;;;;;5018158;28;20058;-80
2022/02/05 15:48:49;;;;;;;4.68;2.40;;;;;;;;;;5017689;28;20054;-81
2022/02/05 15:51:16;;;;;;;4.20;1.65;;;;;;;;;;5020064;28;20084;-80
2022/02/05 15:53:48;;;;;;;5.00;2.20;;;;;;;;;;5021602;28;20050;-80
2022/02/05 15:56:30;;;;;;;5.15;2.30;;;;;;;;;;5017455;28;20050;-80
2022/02/05 15:58:59;;;;;;;3.97;1.65;;;;;;;;;;5020060;28;20053;-81
2022/02/05 16:01:26;;;;;;;3.92;1.83;;;;;;;;;;5019798;28;20050;-80
2022/02/05 16:03:54;;;;;;;6.70;2.90;;;;;;;;;;5020908;28;20057;-80
2022/02/05 16:06:21;;;;;;;5.30;2.10;;;;;;;;;;5020898;28;20053;-81
2022/02/05 16:08:49;;;;;;;6.78;2.90;;;;;;;;;;5019860;28;20050;-80
2022/02/05 16:11:17;;;;;;;7.55;3.80;;;;;;;;;;5020471;28;20050;-81
2022/02/05 16:13:44;;;;;;;5.72;2.45;;;;;;;;;;5020072;28;20046;-80
2022/02/05 16:16:11;;;;;;;5.60;1.83;;;;;;;;;;5005295;28;20073;-80
2022/02/05 16:18:39;;;;;;;5.28;1.75;;;;;;;;;;4997348;28;20057;-80
2022/02/05 16:21:08;;;;;;;5.43;1.60;;;;;;;;;;5015013;28;20108;-82
2022/02/05 16:23:37;;;;;;;3.67;1.60;;;;;;;;;;5018586;28;20056;-81
2022/02/05 16:26:05;;;;;;;3.80;1.52;;;;;;;;;;5018591;28;20046;-81
2022/02/05 16:28:34;;;;;;;4.03;1.52;;;;;;;;;;5018508;28;20053;-80
2022/02/05 16:31:02;;;;;;;3.45;1.50;;;;;;;;;;5018813;28;20509;-80
2022/02/05 16:33:32;;;;;;;3.47;1.15;;;;;;;;;;5019374;28;20057;-81
2022/02/05 16:36:06;;;;;;;5.80;1.65;;;;;;;;;;5018462;28;20114;-79
2022/02/05 16:38:35;;;;;;;4.07;1.38;;;;;;;;;;5019552;28;20092;-81
2022/02/05 16:41:05;;;;;;;4.13;1.52;;;;;;;;;;5018229;28;20441;-81
2022/02/05 16:43:33;;;;;;;4.80;1.60;;;;;;;;;;5018018;28;20054;-81
2022/02/05 16:46:00;;;;;;;4.40;1.48;;;;;;;;;;5017357;28;20485;-80
2022/02/05 16:48:27;;;;;;;5.03;1.83;;;;;;;;;;5012584;28;20057;-81
2022/02/05 16:50:54;;;;;;;5.45;2.33;;;;;;;;;;4997938;28;20053;-81
2022/02/05 16:53:21;;;;;;;7.15;2.55;;;;;;;;;;5000119;28;20049;-80
2022/02/05 16:55:49;;;;;;;7.43;2.30;;;;;;;;;;4997253;28;20050;-80
2022/02/05 16:58:16;;;;;;;7.55;2.50;;;;;;;;;;4998613;28;20581;-80